| time (UTC) | temp C | wind direction | speed KPH | gust KPH | rain 1hr cm | rain 24hr cm | rain mn cm | humidity % | barometer mb |
| 20260507081715 | 1 | 360 | 12.9 | 17.7 | 0.00 | 0.00 | 0.00 | 87 | 1023.7 |
| 20260507080220 | 1 | 360 | 14.5 | 20.9 | 0.00 | 0.00 | 0.00 | 84 | 1023.6 |
| 20260507074717 | 1 | 360 | 12.9 | 17.7 | 0.00 | 0.00 | 0.00 | 80 | 1023.5 |
| 20260507073216 | 2 | 360 | 11.3 | 19.3 | 0.00 | 0.00 | 0.00 | 64 | 1023.5 |
| 20260507070218 | 4 | 360 | 4.8 | 9.7 | 0.00 | 0.00 | 0.00 | 48 | 1023.2 |
| 20260507064717 | 6 | 360 | 0.0 | 0.0 | 0.00 | 0.00 | 0.00 | 35 | 1023.0 |
| 20260507061720 | 6 | 360 | 1.6 | 3.2 | 0.00 | 0.00 | 0.00 | 41 | 1023.0 |
| 20260507060223 | 6 | 300 | 3.2 | 9.7 | 0.00 | 0.00 | 0.00 | 37 | 1022.7 |
| 20260507054720 | 7 | 360 | 6.4 | 12.9 | 0.00 | 0.05 | 0.00 | 38 | 1022.6 |
| 20260507051720 | 7 | 360 | 1.6 | 4.8 | 0.00 | 0.05 | 0.00 | 45 | 1022.6 |
| 20260507050224 | 7 | 360 | 1.6 | 6.4 | 0.00 | 0.05 | 0.00 | 44 | 1022.7 |
| 20260507044719 | 7 | 360 | 1.6 | 3.2 | 0.00 | 0.25 | 0.00 | 46 | 1022.5 |
| 20260507043224 | 7 | 360 | 6.4 | 12.9 | 0.00 | 0.25 | 0.00 | 46 | 1022.2 |
| 20260507041719 | 8 | 360 | 8.0 | 12.9 | 0.00 | 0.25 | 0.00 | 48 | 1022.0 |
| 20260507040225 | 8 | 360 | 4.8 | 9.7 | 0.00 | 0.25 | 0.00 | 49 | 1021.8 |
| 20260507034719 | 8 | 360 | 9.7 | 17.7 | 0.00 | 0.25 | 0.00 | 49 | 1021.5 |
| 20260507033217 | 8 | 360 | 9.7 | 17.7 | 0.00 | 0.25 | 0.00 | 50 | 1021.2 |
| 20260507031720 | 8 | 360 | 8.0 | 12.9 | 0.00 | 0.25 | 0.00 | 50 | 1021.2 |
| 20260507030220 | 8 | 360 | 8.0 | 16.1 | 0.00 | 0.25 | 0.00 | 50 | 1021.0 |
| 20260507024718 | 8 | 360 | 8.0 | 17.7 | 0.00 | 0.25 | 0.00 | 50 | 1020.7 |
| 20260507023221 | 9 | 360 | 8.0 | 19.3 | 0.00 | 0.25 | 0.00 | 50 | 1020.5 |
| 20260507021717 | 9 | 360 | 11.3 | 20.9 | 0.00 | 0.25 | 0.00 | 49 | 1020.3 |
| 20260507020218 | 10 | 360 | 8.0 | 17.7 | 0.00 | 0.25 | 0.00 | 49 | 1020.0 |
| 20260507014718 | 10 | 360 | 11.3 | 20.9 | 0.00 | 0.25 | 0.00 | 49 | 1019.9 |
| 20260507013223 | 10 | 360 | 12.9 | 24.1 | 0.00 | 0.25 | 0.00 | 51 | 1019.5 |
| 20260507011718 | 9 | 360 | 11.3 | 30.6 | 0.00 | 0.25 | 0.00 | 56 | 1019.3 |
| 20260507010223 | 8 | 360 | 17.7 | 35.4 | 0.00 | 0.25 | 0.00 | 59 | 1019.2 |
| 20260507004718 | 10 | 360 | 12.9 | 29.0 | 0.00 | 0.25 | 0.00 | 55 | 1019.0 |
| 20260507003221 | 11 | 360 | 20.9 | 35.4 | 0.00 | 0.25 | 0.00 | 46 | 1018.8 |
| 20260507001719 | 11 | 360 | 14.5 | 30.6 | 0.00 | 0.25 | 0.00 | 47 | 1018.4 |
| 20260507000224 | 12 | 360 | 11.3 | 20.9 | 0.00 | 0.25 | 0.00 | 44 | 1017.9 |
| 20260506233218 | 13 | 360 | 11.3 | 24.1 | 0.00 | 0.25 | 0.00 | 44 | 1017.8 |
| 20260506231718 | 12 | 360 | 16.1 | 29.0 | 0.00 | 0.25 | 0.00 | 48 | 1017.5 |
| 20260506230221 | 12 | 360 | 20.9 | 41.8 | 0.00 | 0.25 | 0.00 | 45 | 1017.3 |
| 20260506224719 | 14 | 360 | 22.5 | 40.2 | 0.00 | 0.25 | 0.00 | 33 | 1016.8 |
| 20260506223221 | 13 | 360 | 22.5 | 40.2 | 0.00 | 0.25 | 0.00 | 33 | 1016.6 |
| 20260506221715 | 15 | 360 | 22.5 | 46.7 | 0.00 | 0.25 | 0.00 | 31 | 1016.5 |
| 20260506214716 | 15 | 360 | 24.1 | 46.7 | 0.00 | 0.25 | 0.00 | 31 | 1016.4 |
| 20260506213215 | 15 | 360 | 22.5 | 41.8 | 0.00 | 0.25 | 0.00 | 31 | 1016.5 |
| 20260506211718 | 14 | 360 | 19.3 | 38.6 | 0.00 | 0.25 | 0.00 | 34 | 1016.7 |
| 20260506204717 | 13 | 360 | 17.7 | 40.2 | 0.00 | 0.25 | 0.00 | 37 | 1016.9 |
| 20260506203217 | 13 | 360 | 17.7 | 38.6 | 0.00 | 0.25 | 0.00 | 39 | 1017.0 |
| 20260506201717 | 13 | 360 | 17.7 | 30.6 | 0.00 | 0.25 | 0.00 | 40 | 1017.0 |
| 20260506200215 | 14 | 360 | 20.9 | 38.6 | 0.00 | 0.28 | 0.00 | 37 | 1017.2 |
| 20260506194721 | 13 | 360 | 17.7 | 29.0 | 0.00 | 0.28 | 0.00 | 39 | 1017.2 |
| 20260506193218 | 13 | 360 | 22.5 | 38.6 | 0.00 | 0.28 | 0.00 | 37 | 1017.3 |
| 20260506191723 | 13 | 360 | 17.7 | 41.8 | 0.00 | 0.28 | 0.00 | 39 | 1017.4 |
| 20260506184718 | 12 | 360 | 22.5 | 37.0 | 0.00 | 0.28 | 0.00 | 40 | 1017.7 |
| 20260506183218 | 12 | 360 | 19.3 | 35.4 | 0.00 | 0.28 | 0.00 | 44 | 1017.5 |
| 20260506181717 | 12 | 360 | 22.5 | 37.0 | 0.00 | 0.28 | 0.00 | 45 | 1017.8 |
| 20260506180220 | 11 | 360 | 19.3 | 37.0 | 0.00 | 0.28 | 0.00 | 45 | 1017.8 |
| 20260506174720 | 11 | 360 | 17.7 | 32.2 | 0.00 | 0.28 | 0.00 | 46 | 1017.9 |
| 20260506173217 | 11 | 360 | 17.7 | 32.2 | 0.00 | 0.28 | 0.00 | 47 | 1018.1 |
| 20260506171719 | 10 | 360 | 16.1 | 33.8 | 0.00 | 0.28 | 0.00 | 50 | 1017.9 |
| 20260506170220 | 9 | 360 | 17.7 | 33.8 | 0.00 | 0.28 | 0.00 | 52 | 1018.0 |
| 20260506164718 | 9 | 360 | 17.7 | 33.8 | 0.00 | 0.28 | 0.00 | 55 | 1018.0 |
| 20260506163218 | 8 | 360 | 16.1 | 30.6 | 0.00 | 0.28 | 0.00 | 56 | 1017.8 |
| 20260506161716 | 8 | 360 | 16.1 | 30.6 | 0.00 | 0.28 | 0.00 | 58 | 1017.9 |
| 20260506160219 | 8 | 360 | 14.5 | 24.1 | 0.00 | 0.28 | 0.00 | 60 | 1017.9 |
| 20260506153217 | 6 | 360 | 16.1 | 30.6 | 0.00 | 0.28 | 0.00 | 64 | 1017.7 |
| 20260506151717 | 6 | 360 | 17.7 | 33.8 | 0.00 | 0.28 | 0.00 | 66 | 1017.5 |
| 20260506144715 | 5 | 360 | 22.5 | 45.1 | 0.00 | 0.28 | 0.00 | 70 | 1017.8 |
| 20260506143220 | 5 | 360 | 20.9 | 38.6 | 0.00 | 0.28 | 0.00 | 72 | 1017.5 |
| 20260506141717 | 5 | 360 | 17.7 | 30.6 | 0.00 | 0.28 | 0.00 | 74 | 1017.2 |
| 20260506140220 | 4 | 360 | 17.7 | 38.6 | 0.00 | 0.28 | 0.00 | 77 | 1017.3 |
| 20260506134715 | 3 | 360 | 17.7 | 32.2 | 0.00 | 0.28 | 0.00 | 78 | 1017.1 |
| 20260506133220 | 3 | 360 | 19.3 | 37.0 | 0.00 | 0.28 | 0.00 | 79 | 1017.4 |
| 20260506130220 | 2 | 360 | 14.5 | 30.6 | 0.00 | 0.28 | 0.00 | 85 | 1017.3 |
| 20260506124718 | 2 | 360 | 12.9 | 24.1 | 0.00 | 0.28 | 0.00 | 85 | 1017.0 |
| 20260506123216 | 2 | 360 | 11.3 | 20.9 | 0.00 | 0.28 | 0.00 | 86 | 1016.3 |
| 20260506121715 | 1 | 360 | 8.0 | 19.3 | 0.00 | 0.28 | 0.00 | 87 | 1016.4 |
| 20260506120220 | 1 | 360 | 6.4 | 12.9 | 0.00 | 0.28 | 0.00 | 87 | 1016.4 |
| 20260506114717 | 2 | 360 | 6.4 | 12.9 | 0.00 | 0.28 | 0.00 | 85 | 1016.5 |
| 20260506113217 | 2 | 360 | 6.4 | 12.9 | 0.00 | 0.28 | 0.00 | 85 | 1016.6 |
| 20260506111717 | 2 | 360 | 6.4 | 12.9 | 0.00 | 0.28 | 0.00 | 85 | 1016.6 |
| 20260506110221 | 2 | 360 | 6.4 | 12.9 | 0.00 | 0.28 | 0.00 | 85 | 1016.4 |
| 20260506104715 | 2 | 360 | 4.8 | 9.7 | 0.00 | 0.28 | 0.00 | 85 | 1016.2 |
| 20260506103218 | 2 | 360 | 3.2 | 8.0 | 0.00 | 0.28 | 0.00 | 84 | 1016.2 |
| 20260506101715 | 2 | 360 | 3.2 | 6.4 | 0.00 | 0.28 | 0.00 | 84 | 1016.1 |
| 20260506100216 | 2 | 360 | 4.8 | 8.0 | 0.00 | 0.28 | 0.00 | 84 | 1016.1 |
| 20260506094717 | 3 | 360 | 4.8 | 9.7 | 0.00 | 0.28 | 0.00 | 85 | 1016.1 |
| 20260506093217 | 3 | 360 | 4.8 | 9.7 | 0.00 | 0.28 | 0.00 | 86 | 1016.1 |
| 20260506091717 | 3 | 360 | 4.8 | 8.0 | 0.00 | 0.28 | 0.00 | 86 | 1016.1 |
| 20260506090222 | 3 | 360 | 3.2 | 8.0 | 0.00 | 0.28 | 0.00 | 85 | 1015.9 |
| 20260506084719 | 3 | 360 | 4.8 | 12.9 | 0.00 | 0.28 | 0.00 | 82 | 1016.0 |